TAF KRST
KRST 090520Z 0906/1006 15015G25KT P6SM OVC200 FM090800 15015G24KT P6SM OVC200 WS020/18045KT FM091300 15015G23KT 6SM -SN BKN040 OVC060 FM091700 18011KT P6SM SCT050 FM100000 31012G20KT P6SM SCT015 SCT180=
METAR KRST
WC KRST
WS KRST
WV KRST